Hawaii METAR Reports

 

PHOG - Kahului, Hawaii, USA
Distance from station: WNW 8mi, 13km
Updated: Tue, 31-Mar-2020 1:54pm HST
Partly Cloudy
Partly Cloudy
 Wind from NNE
Wind: NNE 18 mph , 30 km/h
Temperature: 77°F , 25°C
Dew Point: 66°F , 19°C
Humidity: 69%
Barometer: 29.99 inHg , 1015.6 hPa
Clouds: Partly Cloudy
Visibility: 10 miles , 16 km
Cloud details: Few Clouds 2000 ft
Partly Cloudy 5000 ft
2020/03/31 23:54 PHOG 312354Z 03016KT 10SM FEW020 SCT050 25/19 A2999 RMK AO2 SLP159 T02500189 10272 20228 56019
PHJH - Lahaina/West Mau, Hawaii, USA
Distance from station: WNW 24mi, 39km
Updated: Tue, 31-Mar-2020 1:45pm HST
Light drizzle, Mostly cloudy
Light drizzle, Mostly cloudy
 Wind from ENE
Wind: ENE 12 mph , 19 km/h, Gust: 21 mph , 33 km/h
Temperature: 75°F , 24°C
Dew Point: 63°F , 17°C
Humidity: 65%
Barometer: 30.00 inHg , 1015.9 hPa
Summary: Light Drizzle
Clouds: Mostly Cloudy
Visibility: 15 miles , 24 km
Cloud details: Few Clouds 3000 ft
Mostly Cloudy 4500 ft
2020/03/31 23:45 PHJH 312345Z COR 07010G18KT 15SM -DZ FEW030 BKN045 24/17 A3000
 
PHNY - Lanai City Airpo, Hawaii, USA
Distance from station: W 40mi, 65km
Updated: Tue, 31-Mar-2020 2:31pm HST
Mostly Cloudy
Mostly Cloudy
 Wind from NNE
Wind: NNE 14 mph , 22 km/h, Gust: 17 mph , 28 km/h
Temperature: 70°F , 21°C
Dew Point: 68°F , 20°C
Humidity: 94%
Barometer: 30.03 inHg , 1016.9 hPa
Clouds: Mostly Cloudy
Visibility: 10 miles , 16 km
Cloud details: Few Clouds 2200 ft
Partly Cloudy 2800 ft
Mostly Cloudy 3600 ft
2020/04/01 00:31 PHNY 010031Z AUTO 02012G15KT 10SM FEW022 SCT028 BKN036 21/20 A3003 RMK AO2
PHMK - Molokai, Hawaii, USA
Distance from station: WNW 55mi, 88km
Updated: Tue, 31-Mar-2020 1:54pm HST
Partly Cloudy
Partly Cloudy
 Wind from NE
Wind: NE 13 mph , 20 km/h, Gust: 20 mph , 31 km/h
Temperature: 79°F , 26°C
Dew Point: 63°F , 17°C
Humidity: 58%
Barometer: 29.99 inHg , 1015.6 hPa
Clouds: Partly Cloudy
Visibility: 10 miles , 16 km
Cloud details: Partly Cloudy 3400 ft
2020/03/31 23:54 PHMK 312354Z 04011G17KT 10SM SCT034 26/17 A2999 RMK AO2 SLP158 T02560172 10256 20222 56014
 
PHKO - Kailua/Kona, Hawaii, USA
Distance from station: SSE 79mi, 128km
Updated: Tue, 31-Mar-2020 1:53pm HST
Overcast
Overcast
 Wind from S
Wind: S 10 mph , 17 km/h
Temperature: 79°F , 26°C
Dew Point: 68°F , 20°C
Humidity: 70%
Barometer: 29.95 inHg , 1014.2 hPa
Clouds: Overcast
Visibility: 10 miles , 16 km
Cloud details: Partly Cloudy 4500 ft
Mostly Cloudy 7000 ft
Overcast 15000 ft
2020/03/31 23:53 PHKO 312353Z 19009KT 10SM SCT045 BKN070 OVC150 26/20 A2995 RMK AO2 SLP141 T02610200 10267 20250 $
PHSF - Bradshaw Aaf/Haw, Hawaii, USA
Distance from station: SE 90mi, 145km
Updated: Tue, 31-Mar-2020 2:28pm HST
Light rain, Mostly cloudy
Light rain, Mostly cloudy
 Wind from WNW
Wind: WNW 13 mph , 20 km/h
Temperature: 57°F , 14°C
Dew Point: 54°F , 12°C
Humidity: 88%
Barometer: 30.24 inHg , 1024 hPa
Summary: Light Rain
Clouds: Mostly Cloudy
Visibility: 7 miles , 11 km
Cloud details: Few Clouds 700 ft
Mostly Cloudy 1300 ft
Mostly Cloudy 3300 ft
Mostly Cloudy 7000 ft
2020/04/01 00:28 PHSF 010028Z AUTO 29011KT 7SM -RA FEW007 BKN013 BKN033 BKN070 14/12 A3024 RMK AO2 RAB28 CIG 013V070 BKN013 V SCT SLP134 $
 
PHNG - Kaneohe Mcas, Hawaii, USA
Distance from station: WNW 102mi, 164km
Updated: Tue, 31-Mar-2020 1:57pm HST
Mostly Cloudy
Mostly Cloudy
 Wind from ENE
Wind: ENE 8 mph , 13 km/h
Temperature: 81°F , 27°C
Heat Index: 83°F , 28°C
Dew Point: 64°F , 18°C
Humidity: 58%
Barometer: 29.97 inHg , 1014.9 hPa
Clouds: Mostly Cloudy
Visibility: 10 miles , 16 km
Cloud details: Mostly Cloudy 3000 ft
2020/03/31 23:57 PHNG 312357Z 07007KT 10SM BKN030 27/18 A2997 RMK AO2 SLP144 T02720183 10278 20256 58018
PHNL - Honolulu, Hawaii, USA
Distance from station: WNW 108mi, 174km
Updated: Tue, 31-Mar-2020 1:53pm HST
Mostly Cloudy
Mostly Cloudy
 Wind from NE
Wind: NE 10 mph , 17 km/h
Temperature: 79°F , 26°C
Dew Point: 61°F , 16°C
Humidity: 54%
Barometer: 29.99 inHg , 1015.6 hPa
Clouds: Mostly Cloudy
Visibility: 10 miles , 16 km
Cloud details: Few Clouds 2400 ft
Partly Cloudy 4000 ft
Mostly Cloudy 23000 ft
2020/03/31 23:53 PHNL 312353Z 04009KT 10SM FEW024 SCT040 BKN230 26/16 A2999 RMK AO2 SLP153 T02610161 10278 20228 56014
 
PHTO - Hilo, Hawaii, USA
Distance from station: SE 114mi, 183km
Updated: Tue, 31-Mar-2020 2:05pm HST
Overcast
Overcast
 Wind from N
Wind: N 9 mph , 15 km/h
Temperature: 77°F , 25°C
Dew Point: 66°F , 19°C
Humidity: 69%
Barometer: 29.97 inHg , 1014.9 hPa
Clouds: Overcast
Visibility: 10 miles , 16 km
Cloud details: Few Clouds 1800 ft
Mostly Cloudy 4100 ft
Overcast 6500 ft
2020/04/01 00:05 PHTO 010005Z 01008KT 10SM FEW018 BKN041 OVC065 25/19 A2997 RMK AO2 T02500189
PHJR - Kalaeloa, Hawaii, USA
Distance from station: WNW 117mi, 189km
Updated: Tue, 31-Mar-2020 12:53pm HST
NOT Current
Few Clouds
Few Clouds
 Wind from varies
Wind: varies 6 mph , 9 km/h
Temperature: 81°F , 27°C
Heat Index: 82°F , 28°C
Dew Point: 63°F , 17°C
Humidity: 54%
Barometer: 30.01 inHg , 1016.3 hPa
Clouds: Few Clouds
Visibility: 10 miles , 16 km
Cloud details: Few Clouds 3400 ft
2020/03/31 22:53 PHJR 312253Z VRB05KT 10SM FEW034 27/17 A3001 RMK AO2 SLP170 T02670172
 
PHHI - Wheeler Afb/Oahu, Hawaii, USA
Distance from station: WNW 120mi, 193km
Updated: Tue, 31-Mar-2020 1:56pm HST
Partly Cloudy
Partly Cloudy
 Wind from ENE
Wind: ENE 13 mph , 20 km/h
Temperature: 75°F , 24°C
Dew Point: 64°F , 18°C
Humidity: 69%
Barometer: 29.99 inHg , 1015.6 hPa
Clouds: Partly Cloudy
Visibility: 10 miles , 16 km
Cloud details: Few Clouds 18000 ft
Partly Cloudy 21000 ft
2020/03/31 23:56 PHHI 312356Z AUTO 07011KT 10SM FEW180 SCT210 24/18 A2999 RMK AO2 SLP148 T02370177 10244 20190 55017 $
PHLI - Lihue/Kauai Is, Hawaii, USA
Distance from station: WNW 209mi, 336km
Updated: Tue, 31-Mar-2020 1:53pm HST
Clear
Clear
 Wind from NE
Wind: NE 13 mph , 20 km/h
Temperature: 79°F , 26°C
Dew Point: 66°F , 19°C
Humidity: 65%
Barometer: 30.03 inHg , 1016.9 hPa
Clouds: Clear
Visibility: 10 miles , 16 km
2020/03/31 23:53 PHLI 312353Z 05011KT 10SM CLR 26/19 A3003 RMK AO2 SLP165 T02610194 10267 20233 58013
 
PHBK - Barking Sands/Ka, Hawaii, USA
Distance from station: WNW 237mi, 382km
Updated: Tue, 31-Mar-2020 1:56pm HST
Clear
Clear
 Wind from SSW
Wind: SSW 7 mph , 11 km/h
Temperature: 79°F , 26°C
Dew Point: 68°F , 20°C
Humidity: 70%
Barometer: 29.98 inHg , 1015.2 hPa
Clouds: Clear
Visibility: 10 miles , 16 km
2020/03/31 23:56 PHBK 312356Z AUTO 21006KT 10SM CLR 26/20 A2998 RMK AO2 SLP155 T02560200 10261 20211 58012